createdAt,value
2023-05-14T00:00:10.597Z,48.64
2023-05-14T00:00:26.799Z,48.79
2023-05-14T00:00:42.920Z,48.8
2023-05-14T00:00:59.045Z,48.8
2023-05-14T00:01:15.197Z,48.9
2023-05-14T00:01:31.352Z,48.88
2023-05-14T00:01:47.479Z,48.66
2023-05-14T00:02:03.669Z,48.54
2023-05-14T00:02:19.849Z,48.6
2023-05-14T00:02:35.998Z,48.56
2023-05-14T00:02:52.185Z,48.43
2023-05-14T00:03:08.469Z,48.49
2023-05-14T00:03:24.439Z,48.71
2023-05-14T00:03:40.561Z,48.82
2023-05-14T00:03:56.799Z,48.92
2023-05-14T00:04:12.823Z,48.76
2023-05-14T00:04:28.986Z,48.79
2023-05-14T00:04:45.110Z,48.81
2023-05-14T00:05:01.265Z,48.87
2023-05-14T00:05:17.398Z,48.82
2023-05-14T00:05:33.570Z,48.78
2023-05-14T00:05:49.679Z,48.86
2023-05-14T00:06:05.814Z,48.79
2023-05-14T00:06:21.971Z,48.71
2023-05-14T00:06:38.117Z,48.66
2023-05-14T00:06:54.275Z,48.61
2023-05-14T00:07:10.396Z,48.63
2023-05-14T00:07:26.532Z,48.59
2023-05-14T00:07:42.707Z,48.66
2023-05-14T00:07:58.830Z,48.61
2023-05-14T00:08:14.969Z,48.75
2023-05-14T00:08:31.145Z,48.68
2023-05-14T00:08:47.259Z,48.52
2023-05-14T00:09:19.558Z,48.54
2023-05-14T00:09:35.704Z,48.46
2023-05-14T00:09:51.890Z,48.57
2023-05-14T00:10:08.009Z,48.52
2023-05-14T00:10:24.414Z,48.72
2023-05-14T00:10:40.307Z,48.68
2023-05-14T00:10:56.436Z,48.61
2023-05-14T00:11:12.808Z,48.67
2023-05-14T00:11:28.773Z,48.92
2023-05-14T00:11:44.887Z,48.78
2023-05-14T00:12:01.030Z,48.72
2023-05-14T00:12:17.170Z,48.69
2023-05-14T00:12:33.377Z,48.69
2023-05-14T00:12:49.458Z,48.7
2023-05-14T00:13:05.596Z,48.74
2023-05-14T00:13:21.765Z,48.68
2023-05-14T00:13:37.926Z,48.8
2023-05-14T00:13:54.049Z,48.66
2023-05-14T00:14:10.212Z,48.61
2023-05-14T00:14:26.322Z,48.64
2023-05-14T00:14:42.481Z,48.86
2023-05-14T00:14:58.611Z,48.89
2023-05-14T00:15:14.772Z,49.05
2023-05-14T00:15:47.106Z,49
2023-05-14T00:16:03.252Z,49.02
2023-05-14T00:16:19.411Z,49.01
2023-05-14T00:16:35.553Z,49.03
2023-05-14T00:16:51.637Z,49.13
2023-05-14T00:17:07.799Z,49.13
2023-05-14T00:17:23.873Z,49.18
2023-05-14T00:17:40.082Z,49.15
2023-05-14T00:17:56.248Z,49.18
2023-05-14T00:18:12.482Z,49.27
2023-05-14T00:18:28.576Z,49.16
2023-05-14T00:18:44.746Z,49.06
2023-05-14T00:19:00.911Z,49.03
2023-05-14T00:19:17.001Z,49.08
2023-05-14T00:19:33.090Z,49.1
2023-05-14T00:19:49.234Z,49.04
2023-05-14T00:20:05.381Z,49.09
2023-05-14T00:20:21.785Z,49.29
2023-05-14T00:20:37.710Z,49.28
2023-05-14T00:20:53.813Z,49.35
2023-05-14T00:21:09.996Z,49.45
2023-05-14T00:21:26.123Z,49.45
2023-05-14T00:21:42.255Z,49.52
2023-05-14T00:21:58.436Z,49.58
2023-05-14T00:22:14.550Z,49.59
2023-05-14T00:22:30.728Z,49.39
2023-05-14T00:22:46.853Z,49.37
2023-05-14T00:23:02.983Z,49.48
2023-05-14T00:23:19.148Z,49.48
2023-05-14T00:23:35.288Z,49.45
2023-05-14T00:23:51.434Z,49.52
2023-05-14T00:24:07.567Z,49.61
2023-05-14T00:24:23.712Z,49.74
2023-05-14T00:24:39.863Z,49.53
2023-05-14T00:24:56.019Z,49.59
2023-05-14T00:25:12.158Z,49.56
2023-05-14T00:25:28.291Z,49.54
2023-05-14T00:25:55.735Z,49.56
2023-05-14T00:26:11.882Z,49.49
2023-05-14T00:26:28.021Z,49.57
2023-05-14T00:26:44.157Z,49.61
2023-05-14T00:27:00.311Z,49.57
2023-05-14T00:27:16.465Z,49.73
2023-05-14T00:27:32.605Z,49.61
2023-05-14T00:27:48.756Z,49.74
2023-05-14T00:28:04.902Z,49.69
2023-05-14T00:28:21.013Z,49.69
2023-05-14T00:28:37.194Z,49.54
2023-05-14T00:28:53.329Z,49.68
2023-05-14T00:29:09.507Z,49.73
2023-05-14T00:29:25.625Z,49.74
2023-05-14T00:29:41.756Z,49.79
2023-05-14T00:29:57.908Z,49.73
2023-05-14T00:30:14.060Z,49.71
2023-05-14T00:30:30.192Z,49.74
2023-05-14T00:30:46.386Z,49.7
2023-05-14T00:31:02.545Z,49.82
2023-05-14T00:31:18.700Z,49.88
2023-05-14T00:31:34.850Z,49.86
2023-05-14T00:31:51.052Z,49.96
2023-05-14T00:32:07.100Z,49.96
2023-05-14T00:32:23.235Z,49.88
2023-05-14T00:32:39.450Z,49.86
2023-05-14T00:32:55.614Z,49.98
2023-05-14T00:33:11.670Z,49.93
2023-05-14T00:33:27.806Z,49.84
2023-05-14T00:33:43.949Z,49.75
2023-05-14T00:34:00.115Z,49.79
2023-05-14T00:34:16.261Z,49.74
2023-05-14T00:34:32.377Z,49.69
2023-05-14T00:34:48.514Z,49.75
2023-05-14T00:35:04.674Z,49.95
2023-05-14T00:35:20.816Z,49.67
2023-05-14T00:35:36.977Z,49.43
2023-05-14T00:35:53.102Z,49.37
2023-05-14T00:36:09.262Z,49.39
2023-05-14T00:36:25.443Z,49.51
2023-05-14T00:36:41.551Z,49.65
2023-05-14T00:36:57.685Z,49.59
2023-05-14T00:37:13.836Z,49.62
2023-05-14T00:37:29.983Z,49.58
2023-05-14T00:37:46.128Z,49.52
2023-05-14T00:38:02.273Z,49.19
2023-05-14T00:38:18.436Z,49.41
2023-05-14T00:38:34.576Z,49.46
2023-05-14T00:38:50.724Z,49.62
2023-05-14T00:39:06.837Z,49.57
2023-05-14T00:39:23.035Z,49.49
2023-05-14T00:39:39.153Z,49.49
2023-05-14T00:39:55.282Z,49.33
2023-05-14T00:40:11.468Z,49.21
2023-05-14T00:40:27.505Z,49.36
2023-05-14T00:40:43.720Z,49.29
2023-05-14T00:40:59.910Z,49.2
2023-05-14T00:41:16.010Z,49.3
2023-05-14T00:41:32.153Z,49.44
2023-05-14T00:41:48.342Z,49.34
2023-05-14T00:42:04.464Z,49.31
2023-05-14T00:42:20.611Z,49.44
2023-05-14T00:42:36.783Z,49.47
2023-05-14T00:42:52.892Z,49.61
2023-05-14T00:43:09.032Z,49.59
2023-05-14T00:43:25.191Z,49.61
2023-05-14T00:43:41.358Z,49.63
2023-05-14T00:43:57.507Z,49.39
2023-05-14T00:44:13.611Z,49.08
2023-05-14T00:44:29.767Z,49.05
2023-05-14T00:44:45.915Z,49.13
2023-05-14T00:45:02.067Z,49.35
2023-05-14T00:45:18.206Z,49.49
2023-05-14T00:45:34.342Z,49.46
2023-05-14T00:45:50.488Z,49.34
2023-05-14T00:46:06.639Z,49.45
2023-05-14T00:46:22.865Z,49.56
2023-05-14T00:46:38.946Z,49.57
2023-05-14T00:46:55.139Z,49.55
2023-05-14T00:47:11.217Z,49.67
2023-05-14T00:47:27.373Z,49.74
2023-05-14T00:47:43.604Z,49.75
2023-05-14T00:47:59.741Z,49.6
2023-05-14T00:48:15.786Z,49.45
2023-05-14T00:48:31.965Z,49.49
2023-05-14T00:48:48.130Z,49.48
2023-05-14T00:49:04.249Z,49.44
2023-05-14T00:49:20.386Z,49.41
2023-05-14T00:49:36.538Z,49.79
2023-05-14T00:49:52.690Z,50.19
2023-05-14T00:50:08.827Z,50.2
2023-05-14T00:50:25.338Z,50.02
2023-05-14T00:50:41.136Z,49.86
2023-05-14T00:51:29.556Z,49.69
2023-05-14T00:51:45.687Z,49.61
2023-05-14T00:52:01.865Z,49.69
2023-05-14T00:52:17.988Z,49.74
2023-05-14T00:52:34.124Z,49.7
2023-05-14T00:52:50.271Z,49.65
2023-05-14T00:53:06.411Z,49.71
2023-05-14T00:53:22.632Z,49.75
2023-05-14T00:53:38.710Z,49.98
2023-05-14T00:53:54.864Z,50.03
2023-05-14T00:54:11.001Z,50.04
2023-05-14T00:54:27.182Z,50.04
2023-05-14T00:54:43.318Z,50.02
2023-05-14T00:54:59.451Z,49.89
2023-05-14T00:55:15.620Z,49.7
2023-05-14T00:55:31.730Z,49.42
2023-05-14T00:55:47.878Z,49.4
2023-05-14T00:56:04.014Z,49.4
2023-05-14T00:56:20.180Z,49.41
2023-05-14T00:56:36.322Z,49.37
2023-05-14T00:56:52.467Z,49.34
2023-05-14T00:57:08.602Z,49.35
2023-05-14T00:57:24.784Z,49.56
2023-05-14T00:57:40.902Z,49.6
2023-05-14T00:57:57.032Z,49.47
2023-05-14T00:58:13.196Z,49.45
2023-05-14T00:58:29.356Z,49.37
2023-05-14T00:58:45.482Z,49.43
2023-05-14T00:59:01.649Z,49.45
2023-05-14T00:59:17.796Z,49.47
2023-05-14T00:59:33.956Z,49.51
2023-05-14T00:59:50.060Z,49.54
2023-05-14T01:00:06.234Z,49.49
2023-05-14T01:00:22.448Z,49.39
2023-05-14T01:00:38.523Z,49.41
2023-05-14T01:00:54.659Z,49.59
2023-05-14T01:01:10.838Z,49.7
2023-05-14T01:01:26.909Z,49.84
2023-05-14T01:01:43.088Z,49.8
2023-05-14T01:01:59.238Z,49.87
2023-05-14T01:02:15.385Z,49.78
2023-05-14T01:02:31.510Z,49.85
2023-05-14T01:02:47.746Z,49.92
2023-05-14T01:03:03.901Z,50.08
2023-05-14T01:03:19.982Z,49.9
2023-05-14T01:03:36.218Z,49.75
2023-05-14T01:03:52.370Z,49.85
2023-05-14T01:04:08.570Z,49.83
2023-05-14T01:04:24.552Z,49.88
2023-05-14T01:04:40.712Z,49.83
2023-05-14T01:04:56.832Z,49.78
2023-05-14T01:05:13.007Z,49.85
2023-05-14T01:05:29.118Z,49.85
2023-05-14T01:05:45.263Z,49.93
2023-05-14T01:06:01.412Z,49.82
2023-05-14T01:06:17.613Z,49.85
2023-05-14T01:06:33.717Z,49.83
2023-05-14T01:06:49.848Z,49.85
2023-05-14T01:07:05.989Z,49.81
2023-05-14T01:07:22.144Z,49.92
2023-05-14T01:07:38.275Z,49.96
2023-05-14T01:07:54.458Z,49.81
2023-05-14T01:08:10.592Z,49.8
2023-05-14T01:08:26.732Z,49.91
2023-05-14T01:08:42.886Z,50.04
2023-05-14T01:08:59.025Z,50
2023-05-14T01:09:15.148Z,50.22
2023-05-14T01:09:31.293Z,50.47
2023-05-14T01:09:47.486Z,50.6
2023-05-14T01:10:03.608Z,50.83
2023-05-14T01:10:19.763Z,50.66
2023-05-14T01:10:35.875Z,50.61
2023-05-14T01:10:52.031Z,50.67
2023-05-14T01:11:08.193Z,50.6
2023-05-14T01:11:24.327Z,50.66
2023-05-14T01:11:40.459Z,50.75
2023-05-14T01:11:56.612Z,50.96
2023-05-14T01:12:12.755Z,50.82
2023-05-14T01:12:28.912Z,50.95
2023-05-14T01:12:45.064Z,50.93
2023-05-14T01:13:01.222Z,51.44
2023-05-14T01:13:17.331Z,51.65
2023-05-14T01:13:33.394Z,51.41
2023-05-14T01:13:49.639Z,51.34
2023-05-14T01:14:05.776Z,51.33
2023-05-14T01:14:21.972Z,51.23
2023-05-14T01:14:38.061Z,51.22
2023-05-14T01:14:54.250Z,51.18
2023-05-14T01:15:10.368Z,51
2023-05-14T01:15:26.497Z,51.35
2023-05-14T01:15:42.655Z,51.31
2023-05-14T01:15:58.849Z,51.3
2023-05-14T01:16:15.010Z,51.7
2023-05-14T01:16:31.123Z,51.67
2023-05-14T01:16:47.252Z,51.7
2023-05-14T01:17:03.394Z,52.08
2023-05-14T01:17:19.525Z,51.87
2023-05-14T01:17:35.720Z,51.65
2023-05-14T01:17:51.875Z,51.59
2023-05-14T01:18:08.020Z,51.55
2023-05-14T01:18:24.172Z,51.55
2023-05-14T01:18:40.309Z,51.57
2023-05-14T01:18:56.402Z,51.54
2023-05-14T01:19:12.613Z,51.63
2023-05-14T01:19:28.685Z,51.72
2023-05-14T01:19:56.130Z,52.12
2023-05-14T01:20:12.270Z,52.15
2023-05-14T01:20:28.419Z,52.17
2023-05-14T01:20:44.573Z,52.21
2023-05-14T01:21:00.705Z,52.09
2023-05-14T01:21:16.849Z,52.07
2023-05-14T01:21:32.993Z,52.24
2023-05-14T01:21:49.131Z,52.21
2023-05-14T01:22:05.284Z,52.4
2023-05-14T01:22:21.466Z,52.32
2023-05-14T01:22:37.569Z,52.53
2023-05-14T01:22:53.727Z,52.37
2023-05-14T01:23:09.876Z,52.32
2023-05-14T01:23:25.940Z,52.6
2023-05-14T01:23:42.151Z,52.54
2023-05-14T01:23:58.308Z,52.64
2023-05-14T01:24:14.454Z,52.73
2023-05-14T01:24:30.584Z,52.68
2023-05-14T01:24:46.740Z,52.65
2023-05-14T01:25:02.887Z,52.77
2023-05-14T01:25:19.025Z,52.73
2023-05-14T01:25:35.209Z,52.52
2023-05-14T01:25:51.334Z,52.45
2023-05-14T01:26:07.476Z,52.48
2023-05-14T01:26:23.626Z,52.64
2023-05-14T01:26:39.795Z,52.61
2023-05-14T01:26:55.877Z,52.6
2023-05-14T01:27:12.055Z,52.44
2023-05-14T01:27:28.215Z,52.4
2023-05-14T01:27:44.337Z,52.55
2023-05-14T01:28:00.481Z,52.64
2023-05-14T01:28:16.668Z,52.69
2023-05-14T01:28:32.771Z,52.63
2023-05-14T01:28:48.925Z,52.59
2023-05-14T01:29:05.092Z,52.59
2023-05-14T01:29:21.228Z,52.69
2023-05-14T01:29:37.371Z,52.7
2023-05-14T01:29:53.500Z,52.75
2023-05-14T01:30:09.660Z,52.84
2023-05-14T01:30:26.092Z,52.85
2023-05-14T01:30:41.954Z,52.74
2023-05-14T01:30:58.093Z,52.77
2023-05-14T01:31:14.230Z,52.9
2023-05-14T01:31:30.421Z,52.84
2023-05-14T01:31:46.589Z,52.7
2023-05-14T01:32:02.738Z,52.74
2023-05-14T01:32:18.855Z,52.74
2023-05-14T01:32:34.995Z,52.94
2023-05-14T01:32:51.448Z,52.85
2023-05-14T01:33:07.318Z,52.8
2023-05-14T01:33:23.308Z,52.78
2023-05-14T01:33:39.574Z,52.87
2023-05-14T01:33:55.687Z,52.78
2023-05-14T01:34:11.837Z,52.75
2023-05-14T01:34:28.002Z,52.78
2023-05-14T01:34:44.124Z,52.8
2023-05-14T01:35:00.309Z,52.81
2023-05-14T01:35:16.416Z,52.86
2023-05-14T01:35:32.470Z,52.99
2023-05-14T01:35:48.710Z,53.04
2023-05-14T01:36:04.874Z,53.04
2023-05-14T01:36:21.023Z,52.92
2023-05-14T01:36:37.151Z,53.07
2023-05-14T01:36:53.322Z,53.24
2023-05-14T01:37:09.445Z,53.13
2023-05-14T01:37:25.605Z,53.1
2023-05-14T01:37:41.725Z,53.17
2023-05-14T01:37:57.866Z,53.1
2023-05-14T01:38:14.010Z,53.11
2023-05-14T01:38:30.168Z,53.11
2023-05-14T01:38:46.307Z,53.13
2023-05-14T01:39:02.455Z,53.2
2023-05-14T01:39:18.586Z,53.37
2023-05-14T01:39:34.758Z,53.44
2023-05-14T01:39:50.883Z,53.44
2023-05-14T01:40:07.023Z,53.44
2023-05-14T01:40:23.401Z,53.59
2023-05-14T01:40:39.352Z,53.58
2023-05-14T01:40:55.469Z,53.72
2023-05-14T01:41:11.609Z,53.64
2023-05-14T01:41:27.748Z,53.59
2023-05-14T01:41:43.912Z,53.6
2023-05-14T01:42:00.097Z,53.62
2023-05-14T01:42:16.208Z,53.69
2023-05-14T01:42:32.339Z,53.74
2023-05-14T01:42:48.493Z,53.74
2023-05-14T01:43:04.685Z,53.74
2023-05-14T01:43:20.818Z,53.7
2023-05-14T01:43:36.957Z,53.94
2023-05-14T01:43:53.091Z,53.9
2023-05-14T01:44:09.229Z,54
2023-05-14T01:44:25.287Z,54.09
2023-05-14T01:44:41.510Z,54.05
2023-05-14T01:44:57.669Z,54.03
2023-05-14T01:45:13.823Z,54.12
2023-05-14T01:45:29.871Z,54.14
2023-05-14T01:45:46.142Z,54.13
2023-05-14T01:46:02.308Z,54.25
2023-05-14T01:46:18.402Z,54.14
2023-05-14T01:46:34.559Z,54.07
2023-05-14T01:46:50.709Z,54.12
2023-05-14T01:47:06.835Z,54.09
2023-05-14T01:47:23.020Z,54.05
2023-05-14T01:47:39.052Z,54.1
2023-05-14T01:47:55.291Z,54.15
2023-05-14T01:48:11.446Z,54.08
2023-05-14T01:48:27.601Z,54.06
2023-05-14T01:48:43.730Z,54.05
2023-05-14T01:48:59.820Z,54.11
2023-05-14T01:49:15.983Z,54.09
2023-05-14T01:49:32.144Z,54.17
2023-05-14T01:49:48.269Z,54.18
2023-05-14T01:50:04.414Z,54.11
2023-05-14T01:50:20.580Z,54.19
2023-05-14T01:50:36.730Z,54.3
2023-05-14T01:50:52.849Z,54.25
2023-05-14T01:51:09.000Z,54.23
2023-05-14T01:51:25.138Z,54.19
2023-05-14T01:51:41.325Z,54.19
2023-05-14T01:51:57.443Z,54.26
2023-05-14T01:52:13.577Z,54.23
2023-05-14T01:52:29.719Z,54.2
2023-05-14T01:52:45.884Z,54.28
2023-05-14T01:53:02.088Z,54.28
2023-05-14T01:53:18.178Z,54.21
2023-05-14T01:53:34.301Z,54.44
2023-05-14T01:53:50.469Z,54.37
2023-05-14T01:54:06.715Z,54.39
2023-05-14T01:54:22.765Z,54.35
2023-05-14T01:54:38.884Z,54.37
2023-05-14T01:54:55.041Z,54.36
2023-05-14T01:55:11.183Z,54.39
2023-05-14T01:55:27.345Z,54.54
2023-05-14T01:55:43.470Z,54.51
2023-05-14T01:55:59.620Z,54.47
2023-05-14T01:56:15.775Z,54.51
2023-05-14T01:56:31.901Z,54.58
2023-05-14T01:56:48.065Z,54.53
2023-05-14T01:57:04.189Z,54.57
2023-05-14T01:57:20.360Z,54.58
2023-05-14T01:57:36.487Z,54.65
2023-05-14T01:57:52.705Z,54.55
2023-05-14T01:58:08.807Z,54.6
2023-05-14T01:58:24.927Z,54.55
2023-05-14T01:58:41.067Z,54.56
2023-05-14T01:58:57.235Z,54.67
2023-05-14T01:59:13.375Z,54.64
2023-05-14T01:59:29.518Z,54.66
2023-05-14T02:00:01.849Z,54.63
2023-05-14T02:00:17.995Z,54.64
2023-05-14T02:00:34.109Z,54.64
2023-05-14T02:00:50.233Z,54.7
2023-05-14T02:01:06.388Z,54.68
2023-05-14T02:01:22.593Z,54.78
2023-05-14T02:01:38.703Z,54.83
2023-05-14T02:01:54.888Z,54.86
2023-05-14T02:02:10.987Z,54.83
2023-05-14T02:02:27.194Z,54.79
2023-05-14T02:02:43.321Z,54.88
2023-05-14T02:02:59.433Z,54.83
2023-05-14T02:03:15.537Z,54.9
2023-05-14T02:03:31.717Z,55
2023-05-14T02:03:47.871Z,55.11
2023-05-14T02:04:04.116Z,55.1
2023-05-14T02:04:20.169Z,55.09
2023-05-14T02:04:36.262Z,55.16
2023-05-14T02:04:52.446Z,55.3
2023-05-14T02:05:08.597Z,55.4
2023-05-14T02:05:24.716Z,55.47
2023-05-14T02:05:40.905Z,55.48
2023-05-14T02:05:57.021Z,55.47
2023-05-14T02:06:13.173Z,55.42
2023-05-14T02:06:29.294Z,55.45
2023-05-14T02:06:45.434Z,55.44
2023-05-14T02:07:01.591Z,55.53
2023-05-14T02:07:17.715Z,55.49
2023-05-14T02:07:33.884Z,55.59
2023-05-14T02:07:50.076Z,55.48
2023-05-14T02:08:06.169Z,55.56
2023-05-14T02:08:22.320Z,55.6
2023-05-14T02:08:38.472Z,55.7
2023-05-14T02:08:54.618Z,55.78
2023-05-14T02:09:10.774Z,55.87
2023-05-14T02:09:26.911Z,55.74
2023-05-14T02:09:43.037Z,55.73
2023-05-14T02:09:59.208Z,55.98
2023-05-14T02:10:15.322Z,56.06
2023-05-14T02:10:31.475Z,55.94
2023-05-14T02:10:47.624Z,55.93
2023-05-14T02:11:03.787Z,55.95
2023-05-14T02:11:19.915Z,55.94
2023-05-14T02:11:36.060Z,55.99
2023-05-14T02:11:52.226Z,55.98
2023-05-14T02:12:08.372Z,56.1
2023-05-14T02:12:24.512Z,56.32
2023-05-14T02:12:40.717Z,56.18
2023-05-14T02:12:56.801Z,56.17
2023-05-14T02:13:12.930Z,56.15
2023-05-14T02:13:29.067Z,56.21
2023-05-14T02:13:56.515Z,56.22
2023-05-14T02:14:12.643Z,56.23
2023-05-14T02:14:28.808Z,56.38
2023-05-14T02:14:44.947Z,56.42
2023-05-14T02:15:01.079Z,56.45
2023-05-14T02:15:17.232Z,56.39
2023-05-14T02:15:33.370Z,56.43
2023-05-14T02:15:49.538Z,56.38
2023-05-14T02:16:05.693Z,56.32
2023-05-14T02:16:21.921Z,56.26
2023-05-14T02:16:37.955Z,56.41
2023-05-14T02:16:54.132Z,56.39
2023-05-14T02:17:10.250Z,56.35
2023-05-14T02:17:26.481Z,56.38
2023-05-14T02:17:42.621Z,56.55
2023-05-14T02:17:58.805Z,56.5
2023-05-14T02:18:14.841Z,56.46
2023-05-14T02:18:31.040Z,56.46
2023-05-14T02:18:47.144Z,56.42
2023-05-14T02:19:03.345Z,56.54
2023-05-14T02:19:19.409Z,56.59
2023-05-14T02:19:35.565Z,56.49
2023-05-14T02:19:51.720Z,56.47
2023-05-14T02:20:07.849Z,56.48
2023-05-14T02:20:24.274Z,56.45
2023-05-14T02:20:40.147Z,56.46
2023-05-14T02:20:56.313Z,56.41
2023-05-14T02:21:12.445Z,56.39
2023-05-14T02:21:28.586Z,56.31
2023-05-14T02:21:44.741Z,56.37
2023-05-14T02:22:00.883Z,56.38
2023-05-14T02:22:17.018Z,56.46
2023-05-14T02:22:33.217Z,56.45
2023-05-14T02:22:49.323Z,56.44
2023-05-14T02:23:05.502Z,56.47
2023-05-14T02:23:31.039Z,56.48
2023-05-14T02:23:41.920Z,56.43
2023-05-14T02:23:53.901Z,56.33
2023-05-14T02:24:10.079Z,56.34
2023-05-14T02:24:26.196Z,56.34
2023-05-14T02:24:42.354Z,56.36
2023-05-14T02:24:58.482Z,56.36
2023-05-14T02:25:14.627Z,56.45
2023-05-14T02:25:30.772Z,56.45
2023-05-14T02:25:46.895Z,56.43
2023-05-14T02:26:03.060Z,56.36
2023-05-14T02:26:19.202Z,56.4
2023-05-14T02:26:35.376Z,56.46
2023-05-14T02:26:51.490Z,56.51
2023-05-14T02:27:07.661Z,56.46
2023-05-14T02:27:23.804Z,56.41
2023-05-14T02:27:39.937Z,56.37
2023-05-14T02:27:56.073Z,56.38
2023-05-14T02:28:12.232Z,56.4
2023-05-14T02:28:28.381Z,56.48
2023-05-14T02:28:44.526Z,56.57
2023-05-14T02:29:00.647Z,56.54
2023-05-14T02:29:16.824Z,56.57
2023-05-14T02:29:32.960Z,56.57
2023-05-14T02:29:49.090Z,56.54
2023-05-14T02:30:05.286Z,56.48
2023-05-14T02:30:21.536Z,56.45
2023-05-14T02:30:37.546Z,56.45
2023-05-14T02:30:53.677Z,56.33
2023-05-14T02:31:09.857Z,56.32
2023-05-14T02:31:25.984Z,56.4
2023-05-14T02:31:42.163Z,56.45
2023-05-14T02:31:58.401Z,56.54
2023-05-14T02:32:14.426Z,56.51
2023-05-14T02:32:30.633Z,56.5
2023-05-14T02:32:46.764Z,56.52
2023-05-14T02:33:02.980Z,56.52
2023-05-14T02:33:19.180Z,56.47
2023-05-14T02:33:35.167Z,56.52
2023-05-14T02:33:51.272Z,56.51
2023-05-14T02:34:07.456Z,56.53
2023-05-14T02:34:23.592Z,56.5
2023-05-14T02:34:39.745Z,56.55
2023-05-14T02:34:55.881Z,56.62
2023-05-14T02:35:12.016Z,56.63
2023-05-14T02:35:28.151Z,56.63
2023-05-14T02:35:44.298Z,56.63
2023-05-14T02:36:00.476Z,56.62
2023-05-14T02:36:16.614Z,56.72
2023-05-14T02:36:32.751Z,56.75
2023-05-14T02:36:48.877Z,56.73
2023-05-14T02:37:05.025Z,56.76
2023-05-14T02:37:21.217Z,56.75
2023-05-14T02:37:37.327Z,56.75
2023-05-14T02:37:53.462Z,56.76
2023-05-14T02:38:09.595Z,56.73
2023-05-14T02:38:25.758Z,56.8
2023-05-14T02:38:41.891Z,56.85
2023-05-14T02:38:58.031Z,56.94
2023-05-14T02:39:14.197Z,56.96
2023-05-14T02:39:30.340Z,57.03
2023-05-14T02:39:46.479Z,57.1
2023-05-14T02:40:02.620Z,57.14
2023-05-14T02:40:18.789Z,57.06
2023-05-14T02:40:34.943Z,57.12
2023-05-14T02:40:51.081Z,57.12
2023-05-14T02:41:07.219Z,57.13
2023-05-14T02:41:23.372Z,57.05
2023-05-14T02:41:39.513Z,56.97
2023-05-14T02:41:55.643Z,57.02
2023-05-14T02:42:11.850Z,57
2023-05-14T02:42:27.972Z,56.92
2023-05-14T02:42:44.077Z,56.85
2023-05-14T02:43:00.282Z,56.82
2023-05-14T02:43:16.375Z,56.82
2023-05-14T02:43:32.527Z,56.81
2023-05-14T02:43:48.658Z,56.77
2023-05-14T02:44:04.840Z,56.85
2023-05-14T02:44:20.957Z,56.86
2023-05-14T02:44:37.106Z,56.87
2023-05-14T02:44:53.269Z,56.95
2023-05-14T02:45:09.415Z,56.88
2023-05-14T02:45:25.535Z,56.82
2023-05-14T02:45:41.687Z,56.77
2023-05-14T02:45:57.839Z,56.74
2023-05-14T02:46:14.001Z,56.79
2023-05-14T02:46:30.192Z,56.78
2023-05-14T02:46:46.311Z,56.83
2023-05-14T02:47:02.470Z,56.8
2023-05-14T02:47:18.539Z,56.77
2023-05-14T02:47:37.512Z,56.8
2023-05-14T02:47:50.870Z,56.84
2023-05-14T02:48:07.072Z,56.95
2023-05-14T02:48:23.135Z,56.96
2023-05-14T02:48:39.295Z,57
2023-05-14T02:48:55.441Z,56.95
2023-05-14T02:49:11.610Z,56.87
2023-05-14T02:49:27.653Z,56.96
2023-05-14T02:49:43.876Z,56.88
2023-05-14T02:50:00.063Z,56.87
2023-05-14T02:50:16.176Z,56.86
2023-05-14T02:50:32.311Z,56.77
2023-05-14T02:50:48.452Z,56.81
2023-05-14T02:51:04.612Z,56.83
2023-05-14T02:51:20.762Z,56.9
2023-05-14T02:51:36.895Z,57
2023-05-14T02:51:53.011Z,56.98
2023-05-14T02:52:09.175Z,57.06
2023-05-14T02:52:25.321Z,57.1
2023-05-14T02:52:41.468Z,57.19
2023-05-14T02:52:57.623Z,57.23
2023-05-14T02:53:13.769Z,57.24
2023-05-14T02:53:29.902Z,57.35
2023-05-14T02:53:46.039Z,57.29
2023-05-14T02:54:02.181Z,57.43
2023-05-14T02:54:18.375Z,57.35
2023-05-14T02:54:34.505Z,57.34
2023-05-14T02:54:50.654Z,57.31
2023-05-14T02:55:06.791Z,57.43
2023-05-14T02:55:22.935Z,57.47
2023-05-14T02:55:39.064Z,57.44
2023-05-14T02:55:55.212Z,57.33
2023-05-14T02:56:11.450Z,57.42
2023-05-14T02:56:27.498Z,57.4
2023-05-14T02:56:43.659Z,57.44
2023-05-14T02:56:59.808Z,57.54
2023-05-14T02:57:15.977Z,57.53
2023-05-14T02:57:32.089Z,57.59
2023-05-14T02:57:48.221Z,57.57
2023-05-14T02:58:04.379Z,57.61
2023-05-14T02:58:20.520Z,57.53
2023-05-14T02:58:36.687Z,57.53
2023-05-14T02:58:52.828Z,57.49
2023-05-14T02:59:08.969Z,57.51
2023-05-14T02:59:25.106Z,57.5
2023-05-14T02:59:41.256Z,57.69
2023-05-14T02:59:57.404Z,57.54
2023-05-14T03:00:15.052Z,57.51
2023-05-14T03:00:30.073Z,57.47
2023-05-14T03:00:45.955Z,57.51
2023-05-14T03:01:02.071Z,57.52
2023-05-14T03:01:18.174Z,57.66
2023-05-14T03:01:34.281Z,57.77
2023-05-14T03:01:50.446Z,57.71
2023-05-14T03:02:06.565Z,57.63
2023-05-14T03:02:22.755Z,57.65
2023-05-14T03:02:38.952Z,57.7
2023-05-14T03:02:55.068Z,57.68
2023-05-14T03:03:11.197Z,57.67
2023-05-14T03:03:27.354Z,57.6
2023-05-14T03:03:43.439Z,57.52
2023-05-14T03:03:59.614Z,57.49
2023-05-14T03:04:15.780Z,57.44
2023-05-14T03:04:31.881Z,57.42
2023-05-14T03:04:48.029Z,57.4
2023-05-14T03:05:04.175Z,57.32
2023-05-14T03:05:20.312Z,57.31
2023-05-14T03:05:36.453Z,57.25
2023-05-14T03:05:52.613Z,57.25
2023-05-14T03:06:08.760Z,57.38
2023-05-14T03:06:24.888Z,57.38
2023-05-14T03:06:41.041Z,57.38
2023-05-14T03:06:57.181Z,57.31
2023-05-14T03:07:13.328Z,57.47
2023-05-14T03:07:29.462Z,57.49
2023-05-14T03:07:56.909Z,57.56
2023-05-14T03:08:12.978Z,57.65
2023-05-14T03:08:29.226Z,57.69
2023-05-14T03:08:45.344Z,57.75
2023-05-14T03:09:01.498Z,57.72
2023-05-14T03:09:17.635Z,57.76
2023-05-14T03:09:34.999Z,57.78
2023-05-14T03:09:49.933Z,57.75
2023-05-14T03:10:06.059Z,57.8
2023-05-14T03:10:22.469Z,57.86
2023-05-14T03:10:38.363Z,57.9
2023-05-14T03:10:54.509Z,58.01
2023-05-14T03:11:10.667Z,58.24
2023-05-14T03:11:26.783Z,58.27
2023-05-14T03:11:42.979Z,58.33
2023-05-14T03:11:59.090Z,58.31
2023-05-14T03:12:15.222Z,58.24
2023-05-14T03:12:31.398Z,58.3
2023-05-14T03:12:47.535Z,58.11
2023-05-14T03:13:03.674Z,58.12
2023-05-14T03:13:19.833Z,58.01
2023-05-14T03:13:35.969Z,58.05
2023-05-14T03:13:52.128Z,58.15
2023-05-14T03:14:08.265Z,58.1
2023-05-14T03:14:24.425Z,58.05
2023-05-14T03:14:40.530Z,57.99
2023-05-14T03:14:56.689Z,57.93
2023-05-14T03:15:12.822Z,57.87
2023-05-14T03:15:28.981Z,57.95
2023-05-14T03:15:45.154Z,57.93
2023-05-14T03:16:01.265Z,57.88
2023-05-14T03:16:17.500Z,57.91
2023-05-14T03:16:33.638Z,57.89
2023-05-14T03:16:49.753Z,57.92
2023-05-14T03:17:05.901Z,57.93
2023-05-14T03:17:22.101Z,57.78
2023-05-14T03:17:38.193Z,57.8
2023-05-14T03:17:54.328Z,57.85
2023-05-14T03:18:10.462Z,57.87
2023-05-14T03:18:26.747Z,57.69
2023-05-14T03:18:42.788Z,57.65
2023-05-14T03:18:58.891Z,57.64
2023-05-14T03:19:15.214Z,57.65
2023-05-14T03:19:31.161Z,57.68
2023-05-14T03:19:47.318Z,57.72
2023-05-14T03:20:03.466Z,57.83
2023-05-14T03:20:19.531Z,57.62
2023-05-14T03:20:35.734Z,57.66
2023-05-14T03:20:51.876Z,57.74
2023-05-14T03:21:08.050Z,57.76
2023-05-14T03:21:24.196Z,57.79
2023-05-14T03:21:40.333Z,57.74
2023-05-14T03:21:56.485Z,57.69
2023-05-14T03:22:12.642Z,57.9
2023-05-14T03:22:28.763Z,57.8
2023-05-14T03:22:44.930Z,58.02
2023-05-14T03:23:01.095Z,58.14
2023-05-14T03:23:17.233Z,58.1
2023-05-14T03:23:33.362Z,58.02
2023-05-14T03:23:49.494Z,58.17
2023-05-14T03:24:05.680Z,58.18
2023-05-14T03:24:21.788Z,58.33
2023-05-14T03:24:37.960Z,58.5
2023-05-14T03:24:54.069Z,58.51
2023-05-14T03:25:10.224Z,58.37
2023-05-14T03:25:26.378Z,58.42
2023-05-14T03:25:42.523Z,58.42
2023-05-14T03:25:58.665Z,58.52
2023-05-14T03:26:14.795Z,58.59
2023-05-14T03:26:30.957Z,58.62
2023-05-14T03:26:47.122Z,58.53
2023-05-14T03:27:03.231Z,58.49
2023-05-14T03:27:19.416Z,58.44
2023-05-14T03:27:35.536Z,58.36
2023-05-14T03:27:51.668Z,58.36
2023-05-14T03:28:07.818Z,58.32
2023-05-14T03:28:23.987Z,58.37
2023-05-14T03:28:40.132Z,58.28
2023-05-14T03:28:56.245Z,58.31
2023-05-14T03:29:12.395Z,58.36
2023-05-14T03:29:28.546Z,58.3
2023-05-14T03:29:44.725Z,58.25
2023-05-14T03:30:00.851Z,58.21
2023-05-14T03:30:16.976Z,58.24
2023-05-14T03:30:33.148Z,58.2
2023-05-14T03:30:49.319Z,58.22
2023-05-14T03:31:05.481Z,58.3